createdAt,value
2019-05-18T00:00:54.311Z,14.3
2019-05-18T00:10:57.784Z,14.3
2019-05-18T00:21:01.237Z,14.1
2019-05-18T00:31:04.941Z,14.1
2019-05-18T00:41:08.406Z,13.9
2019-05-18T00:51:11.893Z,14
2019-05-18T01:01:15.341Z,13.9
2019-05-18T01:11:18.797Z,13.8
2019-05-18T01:21:22.280Z,13.7
2019-05-18T01:31:25.687Z,13.7
2019-05-18T01:41:29.138Z,13.6
2019-05-18T01:51:32.592Z,13.6
2019-05-18T02:01:36.017Z,13.5
2019-05-18T02:11:39.462Z,13.4
2019-05-18T02:21:42.867Z,13.4
2019-05-18T02:31:46.341Z,13.3
2019-05-18T02:41:49.794Z,13.3
2019-05-18T02:51:53.273Z,13.3
2019-05-18T03:01:56.715Z,13.2
2019-05-18T03:12:00.225Z,13.1
2019-05-18T03:22:03.669Z,13.1
2019-05-18T03:32:07.110Z,13
2019-05-18T03:42:10.637Z,13
2019-05-18T03:52:14.092Z,13.1
2019-05-18T04:02:17.588Z,13.1
2019-05-18T04:12:21.066Z,13.1
2019-05-18T04:22:24.500Z,12.9
2019-05-18T04:32:27.943Z,12.9
2019-05-18T04:42:31.435Z,13
2019-05-18T04:52:34.895Z,13
2019-05-18T05:02:38.366Z,13
2019-05-18T05:12:41.838Z,13
2019-05-18T05:22:45.270Z,13.2
2019-05-18T05:32:48.748Z,13.4
2019-05-18T05:42:52.170Z,13.5
2019-05-18T05:52:55.620Z,13.6
2019-05-18T06:02:59.067Z,13.6
2019-05-18T06:13:02.532Z,13.8
2019-05-18T06:23:06.063Z,14.3
2019-05-18T06:33:09.513Z,14.7
2019-05-18T06:43:12.991Z,15.6
2019-05-18T06:53:16.505Z,16.1
2019-05-18T07:03:19.969Z,16.2
2019-05-18T07:13:23.499Z,16.4
2019-05-18T07:23:27.388Z,16.9
2019-05-18T07:33:30.814Z,17.5
2019-05-18T07:43:34.328Z,18
2019-05-18T07:53:37.794Z,17.7
2019-05-18T08:03:41.261Z,17.6
2019-05-18T08:13:44.703Z,17.6
2019-05-18T08:23:48.156Z,17.8
2019-05-18T08:33:51.608Z,17.9
2019-05-18T08:43:55.155Z,17.9
2019-05-18T08:53:58.627Z,17.9
2019-05-18T09:04:02.111Z,18.4
2019-05-18T09:14:05.580Z,18.5
2019-05-18T09:24:09.057Z,18.5
2019-05-18T09:34:12.540Z,18.9
2019-05-18T09:44:15.977Z,19
2019-05-18T09:54:19.394Z,19
2019-05-18T10:04:22.836Z,19.3
2019-05-18T10:14:26.325Z,19.2
2019-05-18T10:24:29.792Z,19.1
2019-05-18T10:34:33.267Z,19.3
2019-05-18T10:44:36.810Z,19.5
2019-05-18T10:54:40.261Z,19.5
2019-05-18T11:04:43.729Z,19.5
2019-05-18T11:14:47.191Z,19.6
2019-05-18T11:24:50.655Z,19.8
2019-05-18T11:34:54.077Z,19.6
2019-05-18T11:44:57.669Z,19.6
2019-05-18T11:55:01.113Z,19.9
2019-05-18T12:05:04.576Z,20
2019-05-18T12:15:08.050Z,19.7
2019-05-18T12:25:11.547Z,19.5
2019-05-18T12:35:15.030Z,19.6
2019-05-18T12:45:18.497Z,19.9
2019-05-18T12:55:21.924Z,19.9
2019-05-18T13:05:25.389Z,19.8
2019-05-18T13:15:28.866Z,20.1
2019-05-18T13:25:32.368Z,20.3
2019-05-18T13:35:35.831Z,20.5
2019-05-18T13:45:39.314Z,20.5
2019-05-18T13:55:42.795Z,20.7
2019-05-18T14:05:46.230Z,20.7
2019-05-18T14:15:49.693Z,20.8
2019-05-18T14:25:53.108Z,20.8
2019-05-18T14:35:56.567Z,21
2019-05-18T14:46:00.054Z,21.1
2019-05-18T14:56:03.550Z,21
2019-05-18T15:06:06.942Z,21.1
2019-05-18T15:16:10.456Z,21.2
2019-05-18T15:26:14.052Z,21.2
2019-05-18T15:36:18.087Z,21.2
2019-05-18T15:46:21.554Z,21
2019-05-18T15:56:24.988Z,21
2019-05-18T16:06:28.426Z,20.8
2019-05-18T16:16:31.848Z,20.5
2019-05-18T16:26:35.347Z,20.3
2019-05-18T16:36:38.826Z,20.2
2019-05-18T16:46:43.251Z,20.2
2019-05-18T16:56:46.772Z,20.1
2019-05-18T17:06:50.219Z,20
2019-05-18T17:16:53.683Z,19.9
2019-05-18T17:26:57.128Z,19.8
2019-05-18T17:37:00.574Z,19.7
2019-05-18T17:47:04.046Z,19.5
2019-05-18T17:57:09.012Z,19.3
2019-05-18T18:07:12.919Z,19.2
2019-05-18T18:17:17.756Z,19
2019-05-18T18:27:25.052Z,18.7
2019-05-18T18:37:33.167Z,18.6
2019-05-18T18:47:36.673Z,18.5
2019-05-18T18:57:41.957Z,18.4
2019-05-18T19:07:46.045Z,18.2
2019-05-18T19:17:49.447Z,18.1
2019-05-18T19:27:55.216Z,17.9
2019-05-18T19:37:58.982Z,17.9
2019-05-18T19:48:02.430Z,17.8
2019-05-18T19:58:08.662Z,17.7
2019-05-18T20:08:12.949Z,17.6
2019-05-18T20:18:16.431Z,17.6
2019-05-18T20:28:23.593Z,17.5
2019-05-18T20:38:27.908Z,17.4
2019-05-18T20:48:31.333Z,17.2
2019-05-18T20:58:39.759Z,17
2019-05-18T21:08:44.365Z,16.8
2019-05-18T21:18:47.829Z,16.7
2019-05-18T21:28:56.348Z,16.5
2019-05-18T21:39:04.375Z,16.5
2019-05-18T21:49:07.876Z,16.4
2019-05-18T21:59:12.495Z,16.4
2019-05-18T22:09:16.251Z,16.4
2019-05-18T22:19:19.715Z,16.2
2019-05-18T22:29:23.166Z,16.2
2019-05-18T22:39:26.806Z,16.1
2019-05-18T22:49:30.310Z,16.1
2019-05-18T22:59:33.750Z,16.1
2019-05-18T23:09:37.207Z,16.1
2019-05-18T23:19:40.658Z,15.8
2019-05-18T23:29:44.076Z,15.7
2019-05-18T23:39:47.505Z,15.4
2019-05-18T23:49:50.945Z,15
2019-05-18T23:59:54.364Z,15.1
